Time;durP1;ratioP1;P1;durP2;ratioP2;P2;SDS_P1;SDS_P2;PMS_P1;PMS_P2;Temp;Humidity;BMP_temperature;BMP_pressure;BME280_temperature;BME280_humidity;BME280_pressure;Samples;Min_cycle;Max_cycle;Signal;HPM_P1;HPM_P2
2022/06/26 00:00:22;;;;;;;1.63;1.52;;;20.40;99.90;;;;;;5031502;28;20279;-66
2022/06/26 00:02:47;;;;;;;2.75;1.50;;;20.40;99.90;;;;;;5031636;28;20264;-66
2022/06/26 00:05:13;;;;;;;3.65;1.95;;;20.40;99.90;;;;;;5030492;28;20174;-66
2022/06/26 00:07:39;;;;;;;2.13;1.73;;;20.40;99.90;;;;;;5030965;28;20197;-66
2022/06/26 00:10:06;;;;;;;2.03;1.80;;;20.40;99.90;;;;;;5013992;28;20178;-66
2022/06/26 00:12:32;;;;;;;2.10;1.67;;;20.50;99.90;;;;;;5031419;28;20189;-66
2022/06/26 00:14:57;;;;;;;2.88;1.50;;;20.50;99.90;;;;;;5031531;28;20625;-66
2022/06/26 00:17:23;;;;;;;2.95;1.50;;;20.60;99.90;;;;;;5029733;28;20178;-66
2022/06/26 00:19:49;;;;;;;1.65;1.55;;;20.60;99.90;;;;;;4999560;28;20244;-66
2022/06/26 00:22:14;;;;;;;3.35;1.60;;;20.70;99.90;;;;;;5013275;28;20261;-66
2022/06/26 00:24:42;;;;;;;2.42;1.67;;;20.70;99.90;;;;;;5031784;28;20185;-66
2022/06/26 00:27:07;;;;;;;3.42;1.55;;;20.70;99.90;;;;;;5031787;28;20170;-66
2022/06/26 00:29:34;;;;;;;2.20;1.60;;;20.80;99.90;;;;;;5031231;28;20182;-66
2022/06/26 00:32:00;;;;;;;2.08;1.50;;;20.80;99.90;;;;;;5031513;28;20272;-66
2022/06/26 00:34:26;;;;;;;1.55;1.45;;;20.80;99.90;;;;;;5031246;28;20189;-68
2022/06/26 00:36:51;;;;;;;2.58;1.70;;;20.80;99.90;;;;;;5013213;28;20174;-69
2022/06/26 00:39:17;;;;;;;2.10;2.00;;;20.80;99.90;;;;;;5030846;28;20233;-69
2022/06/26 00:41:42;;;;;;;2.15;1.80;;;20.80;99.90;;;;;;5031228;28;20628;-69
2022/06/26 00:44:19;;;;;;;2.95;1.90;;;20.70;99.90;;;;;;5031427;28;20317;-69
2022/06/26 00:46:45;;;;;;;1.80;1.70;;;20.70;99.90;;;;;;5031237;28;20324;-68
2022/06/26 00:49:11;;;;;;;3.83;1.92;;;20.70;99.90;;;;;;5030566;28;20182;-69
2022/06/26 00:51:40;;;;;;;2.75;2.00;;;20.60;99.90;;;;;;5031257;28;20209;-69
2022/06/26 00:54:07;;;;;;;2.13;2.03;;;20.60;99.90;;;;;;5031053;28;20641;-68
2022/06/26 00:56:34;;;;;;;4.20;2.30;;;20.60;99.90;;;;;;5031175;28;20186;-69
2022/06/26 00:59:00;;;;;;;2.00;1.80;;;20.60;99.90;;;;;;5030935;28;20221;-69
2022/06/26 01:01:26;;;;;;;2.35;1.90;;;20.50;99.90;;;;;;5031012;28;20174;-68
2022/06/26 01:03:52;;;;;;;2.30;2.10;;;20.50;99.90;;;;;;5031170;28;20537;-68
2022/06/26 01:06:18;;;;;;;3.08;1.70;;;20.40;99.90;;;;;;5030716;28;20538;-67
2022/06/26 01:08:43;;;;;;;1.60;1.50;;;20.40;99.90;;;;;;5026765;28;20724;-68
2022/06/26 01:11:20;;;;;;;1.50;1.35;;;20.30;99.90;;;;;;5030999;28;20197;-69
2022/06/26 01:13:47;;;;;;;3.38;1.50;;;20.30;99.90;;;;;;5012894;28;20179;-68
2022/06/26 01:16:17;;;;;;;2.15;1.70;;;20.30;99.90;;;;;;5030474;28;20699;-68
2022/06/26 01:18:45;;;;;;;1.88;1.55;;;20.20;99.90;;;;;;5034232;28;20236;-69
2022/06/26 01:21:11;;;;;;;1.60;1.50;;;20.10;99.90;;;;;;5028285;28;20217;-69
2022/06/26 01:23:37;;;;;;;3.63;1.55;;;20.10;99.90;;;;;;5034161;28;20177;-69
2022/06/26 01:26:04;;;;;;;2.55;1.40;;;20.10;99.90;;;;;;5034225;28;20205;-69
2022/06/26 01:28:30;;;;;;;2.35;1.48;;;20.10;99.90;;;;;;5034180;28;20664;-69
2022/06/26 01:30:55;;;;;;;3.38;1.33;;;20.00;99.90;;;;;;5034209;28;20269;-69
2022/06/26 01:33:21;;;;;;;1.10;1.10;;;20.00;99.90;;;;;;5033721;28;20261;-69
2022/06/26 01:35:47;;;;;;;2.42;1.30;;;20.00;99.90;;;;;;5016275;28;20663;-69
2022/06/26 01:38:18;;;;;;;1.98;1.30;;;20.00;99.90;;;;;;5033728;28;20218;-69
2022/06/26 01:40:45;;;;;;;2.28;1.30;;;20.00;99.90;;;;;;5033843;28;20277;-69
2022/06/26 01:43:17;;;;;;;2.00;1.00;;;20.00;99.90;;;;;;5016292;28;20239;-70
2022/06/26 01:45:44;;;;;;;1.27;1.17;;;20.10;99.90;;;;;;5033902;28;20265;-69
2022/06/26 01:48:10;;;;;;;1.30;1.20;;;20.10;99.90;;;;;;5034035;28;20197;-69
2022/06/26 01:50:36;;;;;;;0.95;0.95;;;20.00;99.90;;;;;;5032315;28;20585;-69
2022/06/26 01:53:01;;;;;;;1.25;1.17;;;20.00;99.90;;;;;;5033723;28;20210;-69
2022/06/26 01:55:27;;;;;;;1.10;1.00;;;19.90;99.90;;;;;;5033572;28;20641;-69
2022/06/26 01:57:52;;;;;;;1.00;1.00;;;19.80;99.90;;;;;;5033772;28;20178;-69
2022/06/26 02:00:18;;;;;;;2.58;1.00;;;19.70;99.90;;;;;;5033528;28;20214;-69
2022/06/26 02:02:44;;;;;;;0.98;0.98;;;19.70;99.90;;;;;;5033650;28;20170;-69
2022/06/26 02:05:09;;;;;;;1.00;1.00;;;19.70;99.90;;;;;;5033311;28;20216;-69
2022/06/26 02:07:35;;;;;;;1.38;1.27;;;19.60;99.90;;;;;;5033498;28;20256;-69
2022/06/26 02:15:29;;;;;;;6.93;1.13;;;19.50;99.90;;;;;;5033500;28;20244;-69
2022/06/26 02:17:55;;;;;;;1.13;1.10;;;19.50;99.90;;;;;;5033718;28;20186;-69
2022/06/26 02:20:21;;;;;;;2.00;1.15;;;19.50;99.90;;;;;;5033199;28;20220;-69
2022/06/26 02:22:46;;;;;;;1.83;0.90;;;19.50;99.90;;;;;;5033658;28;20178;-69
2022/06/26 02:25:12;;;;;;;1.95;1.50;;;19.50;99.90;;;;;;5032274;28;20186;-70
2022/06/26 02:27:38;;;;;;;1.70;1.60;;;19.50;99.90;;;;;;5032738;28;20185;-69
2022/06/26 02:30:04;;;;;;;1.65;1.55;;;19.50;99.90;;;;;;5032595;28;20193;-70
2022/06/26 02:32:29;;;;;;;1.15;1.10;;;19.50;99.90;;;;;;5033218;28;20210;-69
2022/06/26 02:34:55;;;;;;;1.40;1.30;;;19.50;99.90;;;;;;5032624;28;20325;-70
2022/06/26 02:37:20;;;;;;;5.68;3.58;;;19.50;99.90;;;;;;5033171;28;20216;-70
2022/06/26 02:39:46;;;;;;;2.72;2.05;;;19.50;99.90;;;;;;5032730;28;20230;-70
2022/06/26 02:42:11;;;;;;;1.30;1.20;;;19.50;99.90;;;;;;5033034;28;20182;-70
2022/06/26 02:44:37;;;;;;;1.45;1.10;;;19.50;99.90;;;;;;5031380;28;20213;-70
2022/06/26 02:47:02;;;;;;;1.95;1.10;;;19.50;99.90;;;;;;5013380;28;20657;-70
2022/06/26 02:49:28;;;;;;;0.82;0.82;;;19.50;99.90;;;;;;5020044;28;20193;-70
2022/06/26 02:51:53;;;;;;;1.67;1.00;;;19.50;99.90;;;;;;5032762;28;20197;-69
2022/06/26 02:54:19;;;;;;;0.95;0.95;;;19.50;99.90;;;;;;5032797;28;20197;-69
2022/06/26 02:56:44;;;;;;;0.90;0.90;;;19.50;99.90;;;;;;5032817;28;20182;-70
2022/06/26 02:59:10;;;;;;;0.82;0.82;;;19.40;99.90;;;;;;5032751;28;20225;-70
2022/06/26 03:01:35;;;;;;;1.42;1.10;;;19.40;99.90;;;;;;5032468;28;20690;-69
2022/06/26 03:04:01;;;;;;;0.93;0.88;;;19.40;99.90;;;;;;5032654;28;20181;-69
2022/06/26 03:06:26;;;;;;;1.60;1.50;;;19.30;99.90;;;;;;5032479;28;20178;-69
2022/06/26 03:08:52;;;;;;;2.38;1.15;;;19.40;99.90;;;;;;5032180;28;20182;-70
2022/06/26 03:11:17;;;;;;;1.65;1.10;;;19.40;99.90;;;;;;5032270;28;20752;-69
2022/06/26 03:13:43;;;;;;;1.00;1.00;;;19.40;99.90;;;;;;5032537;28;20181;-69
2022/06/26 03:16:09;;;;;;;1.42;0.90;;;19.40;99.90;;;;;;5032610;28;20660;-70
2022/06/26 03:18:34;;;;;;;1.63;1.00;;;19.40;99.90;;;;;;5032213;28;20210;-69
2022/06/26 03:21:00;;;;;;;1.05;0.95;;;19.40;99.90;;;;;;5031626;28;20227;-70
2022/06/26 03:24:00;;;;;;;0.70;0.70;;;19.40;99.90;;;;;;5032140;28;20629;-70
2022/06/26 03:26:11;;;;;;;1.40;1.10;;;19.40;99.90;;;;;;5032118;28;20440;-70
2022/06/26 03:28:36;;;;;;;1.65;1.17;;;19.40;99.90;;;;;;5032190;28;20315;-69
2022/06/26 03:31:02;;;;;;;1.00;0.90;;;19.50;99.90;;;;;;5031751;28;20178;-69
2022/06/26 03:33:27;;;;;;;1.00;1.00;;;19.50;99.90;;;;;;5032043;28;20206;-70
2022/06/26 03:35:53;;;;;;;1.38;1.05;;;19.50;99.90;;;;;;5031626;28;20236;-70
2022/06/26 03:38:18;;;;;;;1.70;0.88;;;19.50;99.90;;;;;;5031703;28;20364;-69
2022/06/26 03:40:44;;;;;;;1.50;1.00;;;19.60;99.90;;;;;;5031652;28;20217;-70
2022/06/26 03:43:11;;;;;;;1.95;1.02;;;19.50;99.90;;;;;;5031767;28;20182;-69
2022/06/26 03:45:37;;;;;;;2.10;1.40;;;19.60;99.90;;;;;;5031777;28;20189;-70
2022/06/26 03:48:03;;;;;;;1.00;1.00;;;19.50;99.90;;;;;;5031893;28;20240;-69
2022/06/26 03:50:29;;;;;;;1.45;1.35;;;19.50;99.90;;;;;;5031679;28;20656;-70
2022/06/26 03:52:55;;;;;;;1.27;1.02;;;19.50;99.90;;;;;;5031675;28;20224;-70
2022/06/26 03:55:20;;;;;;;1.20;1.00;;;19.50;99.90;;;;;;5031529;28;20178;-70
2022/06/26 03:57:46;;;;;;;3.13;0.82;;;19.40;99.90;;;;;;5032111;28;20206;-70
2022/06/26 04:00:12;;;;;;;1.10;1.10;;;19.30;99.90;;;;;;5031544;28;20310;-70
2022/06/26 04:02:37;;;;;;;1.05;0.95;;;19.30;99.90;;;;;;5031531;28;20288;-69
2022/06/26 04:05:04;;;;;;;0.90;0.90;;;19.30;99.90;;;;;;5031731;28;20286;-70
2022/06/26 04:07:30;;;;;;;1.10;1.00;;;19.40;99.90;;;;;;5031297;28;20197;-70
2022/06/26 04:09:56;;;;;;;0.98;0.98;;;19.40;99.90;;;;;;5031292;28;20629;-70
2022/06/26 04:12:21;;;;;;;0.93;0.88;;;19.40;99.90;;;;;;5031347;28;20194;-70
2022/06/26 04:14:47;;;;;;;1.27;1.17;;;19.40;99.90;;;;;;5031004;28;20205;-70
2022/06/26 04:17:14;;;;;;;0.82;0.82;;;19.30;99.90;;;;;;5031662;28;20197;-70
2022/06/26 04:19:39;;;;;;;0.80;0.80;;;19.20;99.90;;;;;;5031297;28;20222;-70
2022/06/26 04:22:05;;;;;;;1.45;1.08;;;19.20;99.90;;;;;;5031816;28;20248;-70
2022/06/26 04:24:31;;;;;;;2.55;0.98;;;19.20;99.90;;;;;;5031465;28;20181;-69
2022/06/26 04:26:56;;;;;;;1.00;1.00;;;19.20;99.90;;;;;;5031311;28;20261;-70
2022/06/26 04:29:22;;;;;;;1.25;1.10;;;19.40;99.90;;;;;;5031411;28;20174;-70
2022/06/26 04:31:47;;;;;;;0.95;0.93;;;19.70;99.90;;;;;;5031322;28;20555;-66
2022/06/26 04:34:13;;;;;;;1.10;0.95;;;20.00;99.90;;;;;;5031445;28;20660;-76
2022/06/26 04:36:39;;;;;;;1.27;1.02;;;20.10;99.90;;;;;;5031072;28;20186;-76
2022/06/26 04:39:05;;;;;;;1.10;1.10;;;20.30;99.90;;;;;;5013412;28;20221;-76
2022/06/26 04:41:38;;;;;;;1.02;0.98;;;20.40;99.90;;;;;;5031218;28;20179;-74
2022/06/26 04:44:11;;;;;;;0.90;0.90;;;20.50;99.90;;;;;;5031362;28;20190;-68
2022/06/26 04:46:39;;;;;;;0.93;0.93;;;20.50;99.90;;;;;;5030709;28;20649;-68
2022/06/26 04:49:05;;;;;;;1.17;1.05;;;20.60;99.90;;;;;;5027668;28;20186;-67
2022/06/26 04:51:31;;;;;;;3.05;1.02;;;20.50;99.90;;;;;;5020178;28;20178;-69
2022/06/26 04:53:57;;;;;;;0.80;0.80;;;20.40;99.90;;;;;;5035007;28;20249;-68
2022/06/26 04:56:22;;;;;;;1.00;1.00;;;20.40;99.90;;;;;;5017266;28;20186;-71
2022/06/26 04:58:48;;;;;;;1.00;0.90;;;20.30;99.90;;;;;;5035225;28;20209;-72
2022/06/26 05:01:14;;;;;;;0.90;0.90;;;20.20;99.90;;;;;;5035017;28;20186;-69
2022/06/26 05:03:40;;;;;;;0.75;0.75;;;20.00;99.90;;;;;;5030026;28;20561;-69
2022/06/26 05:06:06;;;;;;;1.05;0.90;;;19.90;99.90;;;;;;5024157;28;20179;-69
2022/06/26 05:08:31;;;;;;;0.90;0.90;;;19.80;99.90;;;;;;5015326;28;20229;-69
2022/06/26 05:10:57;;;;;;;1.45;1.02;;;19.90;99.90;;;;;;5022416;28;20652;-69
2022/06/26 05:13:22;;;;;;;0.90;0.80;;;20.00;99.90;;;;;;5034970;28;20173;-69
2022/06/26 05:15:48;;;;;;;2.70;0.93;;;20.30;99.90;;;;;;5034656;28;20206;-69
2022/06/26 05:18:14;;;;;;;1.95;0.85;;;21.10;99.90;;;;;;5017110;28;20210;-68
2022/06/26 05:20:40;;;;;;;0.80;0.80;;;21.90;99.90;;;;;;5016796;28;20197;-69
2022/06/26 05:23:07;;;;;;;3.10;1.00;;;22.30;99.90;;;;;;5034905;28;20188;-69
2022/06/26 05:25:33;;;;;;;0.88;0.88;;;22.50;99.90;;;;;;5034013;28;20188;-70
2022/06/26 05:27:59;;;;;;;1.35;0.73;;;22.40;99.90;;;;;;5034791;28;20701;-70
2022/06/26 05:30:24;;;;;;;1.00;0.90;;;22.30;99.90;;;;;;5034329;28;20504;-70
2022/06/26 05:32:50;;;;;;;1.10;0.90;;;22.60;99.90;;;;;;5034820;28;20527;-70
2022/06/26 05:35:15;;;;;;;1.80;0.80;;;23.20;99.90;;;;;;5034223;28;20181;-70
2022/06/26 05:37:41;;;;;;;0.70;0.70;;;23.40;99.90;;;;;;5027235;28;20182;-70
2022/06/26 05:40:07;;;;;;;0.90;0.90;;;23.30;99.90;;;;;;5014762;28;20554;-70
2022/06/26 05:42:32;;;;;;;1.80;0.93;;;23.30;99.90;;;;;;5023651;28;20185;-69
2022/06/26 05:44:58;;;;;;;0.80;0.80;;;23.10;99.90;;;;;;5016606;28;20186;-69
2022/06/26 05:47:24;;;;;;;1.88;1.00;;;22.90;99.90;;;;;;5016150;28;20244;-69
2022/06/26 05:49:49;;;;;;;0.90;0.90;;;23.00;99.90;;;;;;5034382;28;20178;-66
2022/06/26 05:52:14;;;;;;;0.60;0.60;;;23.60;99.90;;;;;;5033910;28;20216;-66
2022/06/26 05:54:40;;;;;;;2.30;1.20;;;24.40;99.90;;;;;;5034190;28;20209;-66
2022/06/26 05:57:06;;;;;;;0.60;0.60;;;25.30;99.10;;;;;;5033680;28;20257;-66
2022/06/26 05:59:31;;;;;;;1.38;0.90;;;26.10;97.10;;;;;;5033706;28;20249;-65
2022/06/26 06:01:57;;;;;;;0.93;0.80;;;27.10;95.20;;;;;;5033758;28;20212;-66
2022/06/26 06:04:22;;;;;;;0.98;0.80;;;27.70;93.40;;;;;;5033776;28;20644;-65
2022/06/26 06:06:48;;;;;;;40.40;6.80;;;28.30;91.40;;;;;;5034070;28;20208;-68
2022/06/26 06:09:13;;;;;;;6.68;2.53;;;28.80;90.50;;;;;;5033692;28;20180;-68
2022/06/26 06:11:39;;;;;;;2.20;0.80;;;29.50;87.10;;;;;;5033931;28;20189;-67
2022/06/26 06:14:04;;;;;;;1.73;0.60;;;29.90;84.30;;;;;;5032399;28;20170;-69
2022/06/26 06:16:30;;;;;;;0.65;0.65;;;29.80;82.70;;;;;;5025196;28;20179;-68
2022/06/26 06:18:55;;;;;;;1.83;0.70;;;30.00;80.50;;;;;;5013768;28;20561;-67
2022/06/26 06:21:21;;;;;;;2.58;0.70;;;29.70;79.20;;;;;;5013905;28;20257;-68
2022/06/26 06:23:46;;;;;;;0.70;0.70;;;29.40;79.40;;;;;;5020207;28;20644;-68
2022/06/26 06:26:13;;;;;;;3.33;0.70;;;29.30;78.90;;;;;;5033646;28;20193;-68
2022/06/26 06:28:38;;;;;;;0.65;0.65;;;29.70;78.70;;;;;;5033172;28;20260;-68
2022/06/26 06:31:04;;;;;;;4.68;0.63;;;29.70;76.60;;;;;;5033312;28;20308;-67
2022/06/26 06:33:29;;;;;;;0.52;0.52;;;29.90;75.70;;;;;;5033106;28;20221;-68
2022/06/26 06:35:55;;;;;;;0.63;0.63;;;30.10;75.30;;;;;;5033316;28;20186;-67
2022/06/26 06:38:25;;;;;;;0.75;0.60;;;30.80;73.70;;;;;;5032417;28;20217;-68
2022/06/26 06:40:51;;;;;;;1.45;0.70;;;31.10;70.00;;;;;;5032359;28;20202;-68
2022/06/26 06:43:16;;;;;;;0.60;0.60;;;31.50;70.40;;;;;;5033753;28;20185;-68
2022/06/26 06:45:42;;;;;;;0.88;0.70;;;32.10;67.60;;;;;;5033416;28;20629;-68
2022/06/26 06:48:08;;;;;;;2.63;0.80;;;32.50;65.50;;;;;;5019660;28;20229;-68
2022/06/26 06:50:35;;;;;;;0.95;0.45;;;31.90;64.90;;;;;;5033338;28;20206;-68
2022/06/26 06:53:00;;;;;;;1.23;0.80;;;31.90;65.60;;;;;;5033048;28;20243;-68
2022/06/26 06:55:26;;;;;;;2.17;0.73;;;31.80;65.30;;;;;;5032850;28;20637;-68
2022/06/26 06:57:52;;;;;;;1.15;0.40;;;32.00;64.00;;;;;;5028690;28;20193;-67
2022/06/26 07:00:17;;;;;;;1.00;0.63;;;32.30;63.10;;;;;;5024258;28;20356;-69
2022/06/26 07:02:43;;;;;;;0.50;0.50;;;32.20;61.30;;;;;;5027372;28;20697;-69
2022/06/26 07:05:09;;;;;;;0.95;0.80;;;32.20;62.70;;;;;;5032771;28;20182;-70
2022/06/26 07:07:35;;;;;;;0.95;0.70;;;32.40;62.40;;;;;;5032962;28;20193;-72
2022/06/26 07:10:02;;;;;;;2.25;1.00;;;32.40;61.00;;;;;;5028510;28;20185;-69
2022/06/26 07:12:27;;;;;;;0.98;0.90;;;32.40;61.90;;;;;;5016189;28;20741;-69
2022/06/26 07:14:53;;;;;;;1.42;1.30;;;33.10;60.40;;;;;;5012793;28;20265;-69
2022/06/26 07:17:21;;;;;;;1.65;0.90;;;33.60;59.90;;;;;;5022670;28;20170;-70
2022/06/26 07:19:47;;;;;;;1.02;0.90;;;34.20;58.50;;;;;;5032373;28;20672;-69
2022/06/26 07:22:13;;;;;;;0.80;0.80;;;35.10;57.80;;;;;;5032794;28;20205;-69
2022/06/26 07:24:39;;;;;;;0.82;0.82;;;35.70;55.60;;;;;;5014680;28;20209;-69
2022/06/26 07:27:04;;;;;;;1.00;0.88;;;36.20;54.20;;;;;;5032752;28;20185;-69
2022/06/26 07:29:30;;;;;;;0.85;0.82;;;36.40;53.00;;;;;;5032425;28;20638;-69
2022/06/26 07:31:56;;;;;;;1.17;0.90;;;36.20;52.80;;;;;;5014500;28;20181;-70
2022/06/26 07:34:23;;;;;;;1.13;1.02;;;36.00;53.40;;;;;;5031737;28;20547;-69
2022/06/26 07:36:50;;;;;;;1.15;1.10;;;35.70;53.40;;;;;;5027432;28;20268;-69
2022/06/26 07:39:19;;;;;;;1.95;1.58;;;35.30;53.80;;;;;;5011066;28;20634;-69
2022/06/26 07:41:46;;;;;;;1.30;1.20;;;35.40;54.00;;;;;;5012529;28;20197;-69
2022/06/26 07:44:12;;;;;;;1.10;1.10;;;35.70;53.60;;;;;;5012593;28;20529;-69
2022/06/26 07:46:38;;;;;;;1.48;1.08;;;35.60;52.90;;;;;;5012498;28;20257;-69
2022/06/26 07:49:05;;;;;;;1.35;0.88;;;35.60;53.00;;;;;;5012681;28;20186;-70
2022/06/26 07:51:31;;;;;;;1.20;0.90;;;35.90;52.50;;;;;;5012534;28;20178;-69
2022/06/26 07:53:57;;;;;;;1.00;0.90;;;36.20;52.40;;;;;;5012558;28;20174;-69
2022/06/26 07:56:25;;;;;;;1.13;1.00;;;35.80;52.70;;;;;;5012270;28;20206;-70
2022/06/26 07:58:54;;;;;;;1.35;1.10;;;35.30;53.10;;;;;;5012502;28;20260;-69
2022/06/26 08:01:20;;;;;;;3.10;1.30;;;35.30;53.90;;;;;;5012395;28;20281;-69
2022/06/26 08:03:46;;;;;;;1.95;1.30;;;35.70;53.10;;;;;;5012490;28;20637;-69
2022/06/26 08:06:12;;;;;;;0.80;0.80;;;36.00;52.00;;;;;;5012431;28;20188;-70
2022/06/26 08:08:38;;;;;;;0.70;0.70;;;36.20;51.40;;;;;;5012348;28;20188;-69
2022/06/26 08:11:04;;;;;;;0.70;0.65;;;36.30;50.50;;;;;;5012307;28;20178;-69
2022/06/26 08:13:29;;;;;;;1.17;0.80;;;35.80;51.00;;;;;;5012281;28;20548;-69
2022/06/26 08:15:56;;;;;;;0.88;0.63;;;35.50;52.50;;;;;;5012506;28;20174;-69
2022/06/26 08:18:21;;;;;;;1.13;1.02;;;35.30;51.30;;;;;;5012057;28;20174;-69
2022/06/26 08:20:47;;;;;;;1.30;0.73;;;35.30;52.00;;;;;;5012392;28;20191;-69
2022/06/26 08:23:13;;;;;;;0.80;0.60;;;35.20;52.30;;;;;;5012310;28;20178;-69
2022/06/26 08:25:38;;;;;;;0.60;0.60;;;35.30;51.90;;;;;;5012248;28;20190;-69
2022/06/26 08:28:05;;;;;;;1.02;0.77;;;35.60;52.50;;;;;;5015324;28;20189;-70
2022/06/26 08:30:30;;;;;;;1.10;0.85;;;35.50;50.50;;;;;;5016043;28;20201;-69
2022/06/26 08:32:58;;;;;;;0.68;0.68;;;35.20;49.60;;;;;;5016334;28;20170;-70
2022/06/26 08:35:25;;;;;;;0.80;0.80;;;34.90;51.00;;;;;;5016067;28;20186;-69
2022/06/26 08:37:51;;;;;;;1.67;0.60;;;34.50;51.80;;;;;;5019435;28;20232;-69
2022/06/26 08:40:17;;;;;;;0.65;0.65;;;34.40;52.40;;;;;;5034350;28;20209;-69
2022/06/26 08:42:44;;;;;;;1.40;0.65;;;34.20;51.60;;;;;;5034304;28;20183;-69
2022/06/26 08:45:10;;;;;;;0.82;0.82;;;34.10;53.10;;;;;;5034367;28;20687;-69
2022/06/26 08:47:39;;;;;;;0.77;0.77;;;34.10;52.50;;;;;;5034339;28;20257;-69
2022/06/26 08:50:06;;;;;;;0.95;0.80;;;34.40;52.30;;;;;;5034382;28;20161;-69
2022/06/26 08:52:32;;;;;;;0.80;0.80;;;34.50;52.20;;;;;;5034236;28;20173;-69
2022/06/26 08:54:58;;;;;;;1.45;0.82;;;34.60;53.20;;;;;;5034270;28;20176;-69
2022/06/26 08:57:24;;;;;;;1.08;0.70;;;34.50;50.70;;;;;;5033968;28;20256;-69
2022/06/26 08:59:50;;;;;;;0.60;0.60;;;34.20;51.70;;;;;;5016298;28;20252;-69
2022/06/26 09:02:15;;;;;;;0.60;0.60;;;34.00;53.40;;;;;;5016709;28;20197;-69
2022/06/26 09:04:41;;;;;;;0.70;0.70;;;34.00;53.40;;;;;;5033965;28;20654;-69
2022/06/26 09:07:07;;;;;;;0.85;0.85;;;34.10;53.00;;;;;;5033981;28;20257;-69
2022/06/26 09:09:36;;;;;;;1.55;1.00;;;34.20;52.50;;;;;;5034010;28;20206;-69
2022/06/26 09:12:01;;;;;;;1.13;0.80;;;33.80;52.60;;;;;;5033940;28;20182;-69
2022/06/26 09:14:29;;;;;;;0.52;0.43;;;33.30;52.80;;;;;;5033913;28;20261;-69
2022/06/26 09:16:56;;;;;;;1.13;0.70;;;33.30;55.40;;;;;;5016154;28;20184;-70
2022/06/26 09:19:24;;;;;;;0.82;0.70;;;33.40;54.30;;;;;;5033601;28;20209;-69
2022/06/26 09:21:52;;;;;;;0.57;0.50;;;33.40;53.70;;;;;;5033973;28;20189;-69
2022/06/26 09:24:20;;;;;;;0.73;0.73;;;33.40;55.60;;;;;;5033674;28;20186;-69
2022/06/26 09:27:01;;;;;;;1.25;0.90;;;33.30;54.00;;;;;;5033843;28;20652;-69
2022/06/26 09:29:27;;;;;;;0.50;0.50;;;33.30;55.10;;;;;;5033622;28;20178;-69
2022/06/26 09:31:52;;;;;;;1.52;0.90;;;32.90;53.70;;;;;;5033640;28;20174;-69
2022/06/26 09:34:26;;;;;;;0.60;0.60;;;32.90;55.90;;;;;;5033592;28;20189;-69
2022/06/26 09:37:01;;;;;;;0.63;0.63;;;32.90;56.10;;;;;;5033694;28;20183;-69
2022/06/26 09:39:28;;;;;;;0.50;0.50;;;33.10;56.60;;;;;;4998418;28;1022555;-70
2022/06/26 09:41:54;;;;;;;1.00;0.70;;;33.10;54.20;;;;;;5034656;28;20190;-69
2022/06/26 09:44:21;;;;;;;0.80;0.80;;;33.00;54.30;;;;;;5034418;28;20322;-72
2022/06/26 09:46:48;;;;;;;2.53;0.75;;;32.90;55.00;;;;;;5034719;28;20546;-69
2022/06/26 09:49:13;;;;;;;1.30;1.10;;;33.10;55.50;;;;;;5034597;28;20178;-69
2022/06/26 09:51:40;;;;;;;0.95;0.70;;;33.10;55.50;;;;;;5034334;28;20268;-70
2022/06/26 09:54:06;;;;;;;0.60;0.60;;;33.40;54.20;;;;;;5034819;28;20262;-69
2022/06/26 09:56:32;;;;;;;3.88;3.00;;;33.70;55.10;;;;;;5034303;28;20208;-69
2022/06/26 09:58:59;;;;;;;0.75;0.75;;;34.00;54.10;;;;;;5034254;28;20568;-69
2022/06/26 10:07:01;;;;;;;0.98;0.70;;;34.60;53.20;;;;;;5034508;28;20537;-70
2022/06/26 10:09:30;;;;;;;0.60;0.60;;;34.60;51.90;;;;;;5034117;28;20212;-71
2022/06/26 10:12:00;;;;;;;1.70;0.68;;;34.20;51.00;;;;;;5034238;28;20169;-70
2022/06/26 10:14:35;;;;;;;4.35;0.70;;;33.60;51.90;;;;;;5034038;28;20182;-70
2022/06/26 10:17:25;;;;;;;1.48;0.82;;;33.40;53.20;;;;;;5034063;28;20607;-71
2022/06/26 10:19:55;;;;;;;1.08;0.60;;;33.30;54.40;;;;;;5033983;28;20300;-70
2022/06/26 10:22:21;;;;;;;0.70;0.70;;;33.50;55.30;;;;;;5033919;28;20182;-71
2022/06/26 10:24:50;;;;;;;1.40;0.90;;;33.70;53.30;;;;;;5033918;28;20264;-71
2022/06/26 10:27:15;;;;;;;0.90;0.90;;;34.20;53.10;;;;;;5033906;28;20174;-71
2022/06/26 10:29:41;;;;;;;0.80;0.80;;;34.60;53.50;;;;;;5033647;28;20216;-71
2022/06/26 10:32:08;;;;;;;0.80;0.80;;;34.60;52.70;;;;;;5033798;28;20196;-71
2022/06/26 10:34:34;;;;;;;0.95;0.88;;;34.50;53.50;;;;;;5033910;28;20190;-71
2022/06/26 10:37:03;;;;;;;1.77;0.90;;;34.20;52.90;;;;;;5033656;28;20178;-71
2022/06/26 10:39:45;;;;;;;0.90;0.80;;;33.70;52.10;;;;;;5033277;28;20241;-70
2022/06/26 10:45:14;;;;;;;0.95;0.80;;;33.20;54.80;;;;;;5033467;28;20591;-71
2022/06/26 10:47:49;;;;;;;0.70;0.70;;;32.70;54.70;;;;;;5033220;28;20236;-71
2022/06/26 10:50:42;;;;;;;1.55;0.93;;;32.60;55.30;;;;;;5032626;28;20178;-71
2022/06/26 10:53:32;;;;;;;0.57;0.57;;;32.60;56.40;;;;;;5030681;28;20656;-70
2022/06/26 10:56:00;;;;;;;0.70;0.70;;;32.90;55.60;;;;;;5033376;28;20186;-71
2022/06/26 10:58:31;;;;;;;0.80;0.80;;;33.20;54.30;;;;;;5033138;28;20173;-71
2022/06/26 11:01:00;;;;;;;0.73;0.73;;;33.40;54.20;;;;;;5033249;28;20263;-70
2022/06/26 11:03:27;;;;;;;0.82;0.82;;;33.60;54.20;;;;;;5033021;28;20181;-70
2022/06/26 11:06:04;;;;;;;0.77;0.75;;;33.70;54.00;;;;;;5033021;28;20182;-71
2022/06/26 11:08:32;;;;;;;0.90;0.90;;;33.80;53.10;;;;;;5032847;28;20264;-71
2022/06/26 11:11:06;;;;;;;0.90;0.90;;;33.70;52.80;;;;;;5033018;28;20177;-71
2022/06/26 11:13:33;;;;;;;1.00;0.93;;;33.40;53.80;;;;;;5032893;28;20177;-71
2022/06/26 11:15:58;;;;;;;1.58;1.10;;;33.10;54.80;;;;;;5032963;28;20541;-71
2022/06/26 11:18:24;;;;;;;0.80;0.80;;;32.90;53.80;;;;;;5032732;28;20178;-71
2022/06/26 11:20:56;;;;;;;1.45;0.70;;;32.70;54.60;;;;;;5033157;28;20184;-71
2022/06/26 11:23:26;;;;;;;1.30;0.90;;;32.60;55.50;;;;;;5032596;28;20177;-71
2022/06/26 11:26:07;;;;;;;0.85;0.85;;;32.40;55.40;;;;;;5032554;28;20185;-71
2022/06/26 11:28:34;;;;;;;0.90;0.82;;;32.40;55.40;;;;;;5032588;28;20182;-71
2022/06/26 11:31:02;;;;;;;0.60;0.60;;;32.50;55.10;;;;;;5032492;28;20573;-70
2022/06/26 11:33:30;;;;;;;1.27;0.68;;;32.70;55.10;;;;;;5032526;28;20209;-70
2022/06/26 11:36:01;;;;;;;0.80;0.80;;;32.80;54.80;;;;;;5032464;28;20205;-70
2022/06/26 11:38:27;;;;;;;1.02;0.90;;;33.00;55.30;;;;;;5032187;28;20607;-70
2022/06/26 11:40:58;;;;;;;1.08;1.00;;;33.00;55.40;;;;;;5032465;28;20272;-70
2022/06/26 11:43:23;;;;;;;0.82;0.82;;;33.00;56.10;;;;;;5032174;28;20264;-70
2022/06/26 11:45:49;;;;;;;1.40;0.60;;;33.10;54.80;;;;;;5032377;28;20261;-70
2022/06/26 11:48:19;;;;;;;0.93;0.80;;;33.40;54.90;;;;;;5032317;28;20533;-70
2022/06/26 11:50:55;;;;;;;0.80;0.80;;;33.70;53.30;;;;;;5032101;28;20213;-70
2022/06/26 11:53:29;;;;;;;0.80;0.80;;;33.70;52.40;;;;;;5032004;28;20584;-71
2022/06/26 11:55:57;;;;;;;1.02;0.80;;;33.90;53.30;;;;;;5032268;28;20193;-70
2022/06/26 11:58:27;;;;;;;1.00;1.00;;;34.00;52.00;;;;;;5032070;28;20177;-70
2022/06/26 12:01:08;;;;;;;2.35;1.02;;;33.70;52.10;;;;;;5032026;28;20193;-70
2022/06/26 12:03:34;;;;;;;1.75;0.90;;;33.40;53.10;;;;;;5031537;28;20208;-71
2022/06/26 12:06:00;;;;;;;1.45;1.20;;;33.40;53.50;;;;;;5031314;28;20214;-71
2022/06/26 12:08:29;;;;;;;1.27;1.20;;;33.40;53.60;;;;;;5031940;28;20654;-70
2022/06/26 12:10:55;;;;;;;0.73;0.73;;;33.30;53.20;;;;;;5028729;28;20185;-70
2022/06/26 12:13:24;;;;;;;1.95;1.10;;;33.00;53.10;;;;;;5016156;28;20183;-70
2022/06/26 12:15:49;;;;;;;0.80;0.80;;;32.90;55.70;;;;;;5015005;28;20166;-70
2022/06/26 12:18:15;;;;;;;0.90;0.90;;;32.70;54.70;;;;;;5031998;28;20197;-70
2022/06/26 12:20:41;;;;;;;0.93;0.90;;;32.70;55.00;;;;;;5031831;28;20217;-70
2022/06/26 12:23:08;;;;;;;1.33;0.98;;;32.40;55.30;;;;;;5040279;28;20675;-70
2022/06/26 12:25:36;;;;;;;1.20;1.10;;;32.40;55.90;;;;;;5051845;28;20177;-70
2022/06/26 12:28:02;;;;;;;1.20;1.08;;;32.50;57.00;;;;;;5037019;28;20217;-70
2022/06/26 12:30:33;;;;;;;0.88;0.88;;;32.30;55.60;;;;;;5031738;28;20174;-70
2022/06/26 12:33:00;;;;;;;0.90;0.90;;;32.40;55.90;;;;;;5031302;28;20201;-70
2022/06/26 12:35:27;;;;;;;0.93;0.80;;;32.50;54.10;;;;;;5026093;28;20180;-70
2022/06/26 12:37:54;;;;;;;1.30;1.00;;;32.30;54.30;;;;;;5011892;28;20215;-70
2022/06/26 12:40:20;;;;;;;1.48;1.00;;;32.30;55.30;;;;;;5022752;28;20218;-70
2022/06/26 12:42:46;;;;;;;0.90;0.90;;;32.30;56.00;;;;;;5031833;28;20170;-69
2022/06/26 12:45:11;;;;;;;2.03;1.83;;;32.40;55.80;;;;;;5031643;28;20188;-69
2022/06/26 12:47:37;;;;;;;0.90;0.90;;;32.60;55.70;;;;;;4997179;28;20183;-69
2022/06/26 12:50:04;;;;;;;4.38;1.00;;;32.70;55.70;;;;;;5012062;28;20179;-69
2022/06/26 12:52:32;;;;;;;1.20;1.00;;;32.70;56.60;;;;;;5019535;28;20182;-69
2022/06/26 12:54:58;;;;;;;1.75;1.30;;;32.70;55.90;;;;;;5031595;28;20182;-70
2022/06/26 12:57:24;;;;;;;1.02;1.02;;;32.80;55.80;;;;;;5031553;28;20174;-70